Terminal Aerodrome Forecast
Issued by NWS

Home | Current Version | Previous Version | Text Only | Print | Product List | Glossary On
Versions: 1 2 3 4 5 6 7 8 9 10 11 12 13 14 15 16 17 18 19 20 21 22 23 24 25 26 27 28 29 30 31 32 33 34 35 36 37 38 39 40 41
000
FTUS45 KBOI 242329
TAFTWF
TAF
KTWF 242329Z 2500/2524 26012KT P6SM SCT200
     FM250400 20010KT P6SM BKN120
     FM250800 21017G24KT P6SM VCSH SCT050 BKN100
     FM251400 24015G25KT P6SM -SHRA BKN050 OVC080
     FM252000 25020G30KT P6SM SCT080=

USA.gov is the U.S. government's official web portal to all federal, state and local government web resources and services.